Buffalo Niagara International Airport Buffalo US
ICAO: KBUF
IATA: BUF
Category: Large
Scheduled Services: Yes

Elevation: 728 ft
TransAlt. 18000 ft.

Airport Communications:
APP/DEP:126.15
ATIS:135.35
CLNC DEL:124.7
GND:121.9
RDO:122.6
TWR:120.5

KBUF Zoom In..

If you have problems with the map follow the link
https://www.worldairports.se/pages/airport.php?
ICAO=KBUF

Runways:

(A) RW 05 length 8829 ft width 150 ft
ILS 108.50 / hdg 55

(B) RW 14 length 7161 ft width 150 ft
---- / hdg 138

(C) RW 23 length 8829 ft width 150 ft
ILS 111.30 / hdg 235

(D) RW 32 length 7161 ft width 150 ft
ILS 109.95 / hdg 318

Location; KBUF
Day. 24 / Time. 07.54 Zulu
* Altimeter: 29.57
* Temperature: 02° c. 35.6°f.
* Wind from: 240° Speed 09 kn.
Dewpoint: 02° c.
Visibility: 6 Statute Miles.
Clouds: Overcast 200 ft.
Conditions: Light Rain.Conditions: Mist.

KBUF 240754Z 24009KT 6SM -RA BR OVC002 02/02 A2957 RMK AO2 SLP018 P0002 T00220022


Wind From 240°
Speed 09 kn.

 
 
jpsmedia.com for Web Design worldairports.se 2019   terms of use